createdAt,value
2019-06-10T00:00:24.236Z,101229.33
2019-06-10T00:01:31.491Z,101225.82
2019-06-10T00:02:36.786Z,101223.78
2019-06-10T00:03:42.380Z,101218.05
2019-06-10T00:04:47.764Z,101215.55
2019-06-10T00:05:53.261Z,101214.36
2019-06-10T00:07:00.985Z,101221.77
2019-06-10T00:08:07.005Z,101214.38
2019-06-10T00:09:12.429Z,101215.03
2019-06-10T00:10:18.546Z,101210.84
2019-06-10T00:11:23.736Z,101209.64
2019-06-10T00:12:31.481Z,101211.17
2019-06-10T00:13:35.929Z,101203.26
2019-06-10T00:14:41.957Z,101207.13
2019-06-10T00:15:47.226Z,101205.98
2019-06-10T00:16:52.701Z,101198.24
2019-06-10T00:18:22.263Z,101195.86
2019-06-10T00:19:06.821Z,101199.08
2019-06-10T00:20:12.039Z,101190.81
2019-06-10T00:21:17.345Z,101193.19
2019-06-10T00:22:22.579Z,101190.34
2019-06-10T00:23:27.929Z,101189.15
2019-06-10T00:24:33.018Z,101191.99
2019-06-10T00:25:40.581Z,101186.80
2019-06-10T00:26:45.338Z,101193.17
2019-06-10T00:27:51.173Z,101190.17
2019-06-10T00:28:57.922Z,101185.78
2019-06-10T00:30:06.088Z,101181.41
2019-06-10T00:31:11.542Z,101182.75
2019-06-10T00:32:17.146Z,101177.88
2019-06-10T00:33:23.837Z,101172.67
2019-06-10T00:34:31.160Z,101170.48
2019-06-10T00:35:35.897Z,101172.33
2019-06-10T00:36:41.485Z,101170.64
2019-06-10T00:37:46.855Z,101174.67
2019-06-10T00:38:52.216Z,101175.20
2019-06-10T00:39:57.398Z,101170.33
2019-06-10T00:41:05.642Z,101167.28
2019-06-10T00:42:14.906Z,101167.78
2019-06-10T00:43:17.771Z,101167.28
2019-06-10T00:44:22.975Z,101157.22
2019-06-10T00:45:28.303Z,101168.47
2019-06-10T00:46:33.386Z,101167.62
2019-06-10T00:47:41.290Z,101166.63
2019-06-10T00:48:45.704Z,101165.94
2019-06-10T00:49:51.544Z,101168.13
2019-06-10T00:50:56.740Z,101168.63
2019-06-10T00:52:03.983Z,101163.74
2019-06-10T00:53:11.875Z,101169.13
2019-06-10T00:54:16.197Z,101161.59
2019-06-10T00:55:21.332Z,101163.92
2019-06-10T00:56:26.630Z,101158.55
2019-06-10T00:57:31.725Z,101159.39
2019-06-10T00:58:37.049Z,101156.36
2019-06-10T00:59:42.143Z,101153.67
2019-06-10T01:00:47.397Z,101155.17
2019-06-10T01:01:52.758Z,101151.13
2019-06-10T01:03:00.680Z,101149.13
2019-06-10T01:04:06.900Z,101148.78
2019-06-10T01:05:14.956Z,101147.44
2019-06-10T01:06:21.365Z,101142.05
2019-06-10T01:07:26.165Z,101141.06
2019-06-10T01:08:31.688Z,101139.72
2019-06-10T01:09:37.077Z,101142.91
2019-06-10T01:10:44.205Z,101142.41
2019-06-10T01:11:51.667Z,101141.72
2019-06-10T01:12:56.287Z,101140.06
2019-06-10T01:14:01.624Z,101140.56
2019-06-10T01:15:07.525Z,101150.14
2019-06-10T01:16:15.402Z,101140.22
2019-06-10T01:17:21.300Z,101140.07
2019-06-10T01:18:35.738Z,101135.50
2019-06-10T01:19:33.818Z,101134.01
2019-06-10T01:20:41.328Z,101136.20
2019-06-10T01:21:46.046Z,101128.63
2019-06-10T01:22:51.823Z,101128.63
2019-06-10T01:23:57.030Z,101134.35
2019-06-10T01:25:02.763Z,101135.17
2019-06-10T01:26:07.884Z,101135.70
2019-06-10T01:27:14.993Z,101129.79
2019-06-10T01:28:22.094Z,101129.79
2019-06-10T01:29:27.259Z,101137.86
2019-06-10T01:30:32.613Z,101131.66
2019-06-10T01:31:38.049Z,101126.62
2019-06-10T01:32:43.176Z,101130.97
2019-06-10T01:33:51.172Z,101129.81
2019-06-10T01:34:55.541Z,101128.47
2019-06-10T01:36:00.968Z,101119.21
2019-06-10T01:37:06.784Z,101120.40
2019-06-10T01:38:13.508Z,101119.71
2019-06-10T01:39:18.939Z,101113.17
2019-06-10T01:40:24.277Z,101118.86
2019-06-10T01:41:30.622Z,101122.89
2019-06-10T01:42:36.249Z,101121.90
2019-06-10T01:43:42.269Z,101120.55
2019-06-10T01:44:47.906Z,101118.86
2019-06-10T01:45:53.038Z,101119.71
2019-06-10T01:47:00.845Z,101116.17
2019-06-10T01:48:05.250Z,101112.48
2019-06-10T01:49:12.059Z,101110.80
2019-06-10T01:50:19.489Z,101106.95
2019-06-10T01:51:24.895Z,101102.06
2019-06-10T01:52:31.680Z,101099.03
2019-06-10T01:53:36.949Z,101100.38
2019-06-10T01:54:42.189Z,101098.22
2019-06-10T01:55:47.715Z,101095.53
2019-06-10T01:56:53.068Z,101090.31
2019-06-10T01:58:00.740Z,101087.62
2019-06-10T01:59:05.610Z,101097.03
2019-06-10T02:00:19.118Z,101082.92
2019-06-10T02:01:41.304Z,101085.77
2019-06-10T02:02:46.917Z,101077.89
2019-06-10T02:03:52.261Z,101074.51
2019-06-10T02:04:57.901Z,101071.16
2019-06-10T02:06:03.342Z,101076.53
2019-06-10T02:07:11.459Z,101067.44
2019-06-10T02:08:16.575Z,101064.74
2019-06-10T02:09:23.305Z,101062.21
2019-06-10T02:10:30.969Z,101066.74
2019-06-10T02:11:36.693Z,101063.73
2019-06-10T02:12:41.902Z,101067.77
2019-06-10T02:13:47.177Z,101060.86
2019-06-10T02:14:52.910Z,101063.05
2019-06-10T02:16:00.981Z,101059.52
2019-06-10T02:17:05.447Z,101055.32
2019-06-10T02:18:13.511Z,101057.35
2019-06-10T02:19:18.699Z,101051.63
2019-06-10T02:20:24.091Z,101049.63
2019-06-10T02:21:31.141Z,101047.09
2019-06-10T02:22:36.999Z,101045.58
2019-06-10T02:23:42.125Z,101049.95
2019-06-10T02:24:47.408Z,101047.77
2019-06-10T02:25:52.850Z,101047.77
2019-06-10T02:26:58.179Z,101047.25
2019-06-10T02:28:03.810Z,101045.56
2019-06-10T02:29:11.629Z,101047.59
2019-06-10T02:30:28.437Z,101043.22
2019-06-10T02:31:30.474Z,101045.59
2019-06-10T02:32:36.203Z,101032.80
2019-06-10T02:33:37.398Z,101044.89
2019-06-10T02:34:53.574Z,101039.70
2019-06-10T02:35:53.573Z,101042.89
2019-06-10T02:36:57.589Z,101040.35
2019-06-10T02:38:03.655Z,101043.54
2019-06-10T02:39:09.352Z,101043.22
2019-06-10T02:40:19.282Z,101039.34
2019-06-10T02:41:31.653Z,101038.19
2019-06-10T02:42:36.626Z,101039.19
2019-06-10T02:43:44.028Z,101029.94
2019-06-10T02:44:48.933Z,101024.24
2019-06-10T02:45:54.158Z,101031.45
2019-06-10T02:47:03.156Z,101032.12
2019-06-10T02:48:06.788Z,101027.77
2019-06-10T02:49:23.297Z,101026.44
2019-06-10T02:50:31.506Z,101031.27
2019-06-10T02:51:31.432Z,101030.11
2019-06-10T02:52:38.427Z,101030.11
2019-06-10T02:53:43.815Z,101029.77
2019-06-10T02:54:53.170Z,101035.48
2019-06-10T02:55:56.943Z,101040.67
2019-06-10T02:57:04.467Z,101033.96
2019-06-10T02:58:13.614Z,101032.97
2019-06-10T02:59:18.229Z,101036.84
2019-06-10T03:00:36.925Z,101035.81
2019-06-10T03:01:37.113Z,101034.47
2019-06-10T03:02:38.388Z,101040.54
2019-06-10T03:03:49.141Z,101037.50
2019-06-10T03:04:53.495Z,101033.48
2019-06-10T03:05:57.889Z,101035.16
2019-06-10T03:07:03.511Z,101038.16
2019-06-10T03:08:09.117Z,101036.82
2019-06-10T03:09:16.432Z,101033.64
2019-06-10T03:10:29.599Z,101038.52
2019-06-10T03:11:33.499Z,101037.52
2019-06-10T03:12:36.039Z,101036.52
2019-06-10T03:13:42.618Z,101039.20
2019-06-10T03:14:47.794Z,101043.23
2019-06-10T03:15:58.980Z,101034.83
2019-06-10T03:17:07.655Z,101034.64
2019-06-10T03:18:12.992Z,101036.17
2019-06-10T03:19:37.046Z,101032.48
2019-06-10T03:20:25.957Z,101036.83
2019-06-10T03:21:32.349Z,101030.12
2019-06-10T03:22:38.274Z,101036.33
2019-06-10T03:23:43.364Z,101032.80
2019-06-10T03:24:48.684Z,101031.46
2019-06-10T03:26:03.691Z,101027.11
2019-06-10T03:27:08.541Z,101035.48
2019-06-10T03:28:13.910Z,101034.64
2019-06-10T03:29:20.536Z,101034.64
2019-06-10T03:30:44.218Z,101033.30
2019-06-10T03:31:41.307Z,101035.98
2019-06-10T03:32:46.750Z,101039.87
2019-06-10T03:33:48.419Z,101034.14
2019-06-10T03:34:54.933Z,101035.48
2019-06-10T03:36:02.963Z,101034.49
2019-06-10T03:37:07.339Z,101029.97
2019-06-10T03:38:12.623Z,101029.12
2019-06-10T03:39:18.634Z,101027.44
2019-06-10T03:40:25.973Z,101026.44
2019-06-10T03:41:32.279Z,101019.54
2019-06-10T03:42:37.822Z,101024.76
2019-06-10T03:43:43.144Z,101018.36
2019-06-10T03:44:48.412Z,101021.39
2019-06-10T03:45:53.604Z,101014.33
2019-06-10T03:46:59.745Z,101014.33
2019-06-10T03:48:05.029Z,101015.67
2019-06-10T03:49:12.474Z,101018.05
2019-06-10T03:50:18.949Z,101014.52
2019-06-10T03:51:27.370Z,101010.13
2019-06-10T03:52:32.431Z,101015.86
2019-06-10T03:53:37.870Z,101012.32
2019-06-10T03:54:43.490Z,101018.36
2019-06-10T03:55:48.912Z,101015.86
2019-06-10T03:56:54.267Z,101014.52
2019-06-10T03:58:02.175Z,101015.36
2019-06-10T03:59:07.052Z,101016.36
2019-06-10T04:00:14.062Z,101019.39
2019-06-10T04:01:19.499Z,101021.39
2019-06-10T04:02:25.570Z,101020.05
2019-06-10T04:03:33.815Z,101016.86
2019-06-10T04:04:38.904Z,101018.20
2019-06-10T04:05:44.250Z,101012.83
2019-06-10T04:06:52.922Z,101010.64
2019-06-10T04:07:56.554Z,101015.02
2019-06-10T04:09:02.801Z,101008.45
2019-06-10T04:10:08.546Z,101008.45
2019-06-10T04:11:14.131Z,101011.48
2019-06-10T04:12:19.532Z,101009.64
2019-06-10T04:13:25.842Z,101010.14
2019-06-10T04:14:32.824Z,101012.98
2019-06-10T04:15:38.251Z,101012.84
2019-06-10T04:16:43.506Z,101015.02
2019-06-10T04:17:49.078Z,101013.00
2019-06-10T04:18:54.181Z,101011.65
2019-06-10T04:20:09.336Z,101017.38
2019-06-10T04:21:06.565Z,101013.66
2019-06-10T04:22:13.030Z,101017.69
2019-06-10T04:23:23.833Z,101016.69
2019-06-10T04:24:28.622Z,101014.34
2019-06-10T04:25:33.790Z,101007.44
2019-06-10T04:26:39.193Z,101009.13
2019-06-10T04:27:45.271Z,101007.63
2019-06-10T04:28:52.864Z,101009.13
2019-06-10T04:29:58.049Z,101007.60
2019-06-10T04:31:03.346Z,101007.10
2019-06-10T04:32:08.715Z,101004.76
2019-06-10T04:33:14.045Z,101007.95
2019-06-10T04:34:20.396Z,101007.95
2019-06-10T04:35:27.950Z,101012.32
2019-06-10T04:36:33.539Z,101008.10
2019-06-10T04:37:38.983Z,101009.63
2019-06-10T04:38:44.442Z,101005.59
2019-06-10T04:39:49.761Z,101006.09
2019-06-10T04:40:55.129Z,101006.59
2019-06-10T04:42:02.414Z,101005.59
2019-06-10T04:43:07.453Z,101007.28
2019-06-10T04:44:13.295Z,101010.48
2019-06-10T04:45:19.045Z,101009.98
2019-06-10T04:46:26.421Z,101014.32
2019-06-10T04:47:33.317Z,101013.32
2019-06-10T04:48:39.295Z,101012.82
2019-06-10T04:49:44.655Z,101012.32
2019-06-10T04:50:53.169Z,101007.29
2019-06-10T04:51:57.440Z,101012.17
2019-06-10T04:53:03.141Z,101009.33
2019-06-10T04:54:08.260Z,101010.83
2019-06-10T04:55:13.803Z,101006.30
2019-06-10T04:56:19.701Z,101010.33
2019-06-10T04:57:26.563Z,101003.26
2019-06-10T04:58:33.472Z,101011.33
2019-06-10T04:59:39.236Z,101010.52
2019-06-10T05:00:44.708Z,101009.64
2019-06-10T05:01:49.999Z,101012.67
2019-06-10T05:02:55.103Z,101007.64
2019-06-10T05:04:00.425Z,101009.33
2019-06-10T05:05:07.477Z,101002.92
2019-06-10T05:06:12.849Z,101008.98
2019-06-10T05:07:18.996Z,101005.61
2019-06-10T05:08:26.597Z,101002.42
2019-06-10T05:09:33.529Z,101005.77
2019-06-10T05:10:38.354Z,100999.73
2019-06-10T05:11:43.592Z,101001.73
2019-06-10T05:12:48.890Z,100996.02
2019-06-10T05:13:54.264Z,100997.70
2019-06-10T05:14:59.571Z,100992.98
2019-06-10T05:16:04.768Z,100993.16
2019-06-10T05:17:12.606Z,100990.78
2019-06-10T05:18:17.127Z,100989.94
2019-06-10T05:19:24.697Z,100989.78
2019-06-10T05:20:50.368Z,100993.97
2019-06-10T05:21:36.536Z,100994.31
2019-06-10T05:22:42.375Z,100996.31
2019-06-10T05:23:48.095Z,100997.51
2019-06-10T05:24:53.294Z,101002.38
2019-06-10T05:25:58.814Z,100999.85
2019-06-10T05:27:04.255Z,100993.47
2019-06-10T05:28:12.146Z,101000.00
2019-06-10T05:29:16.984Z,100997.66
2019-06-10T05:30:26.004Z,100997.50
2019-06-10T05:31:31.018Z,100990.44
2019-06-10T05:32:36.641Z,100995.47
2019-06-10T05:33:42.602Z,100993.43
2019-06-10T05:34:48.113Z,100989.05
2019-06-10T05:35:53.327Z,100991.39
2019-06-10T05:36:58.875Z,100991.39
2019-06-10T05:38:04.051Z,100982.81
2019-06-10T05:39:12.032Z,100981.95
2019-06-10T05:40:16.572Z,100989.17
2019-06-10T05:41:24.879Z,100989.33
2019-06-10T05:42:29.381Z,100988.12
2019-06-10T05:43:36.239Z,100986.44
2019-06-10T05:44:43.088Z,100991.47
2019-06-10T05:45:48.458Z,100992.15
2019-06-10T05:46:53.590Z,100990.30
2019-06-10T05:47:58.946Z,100994.34
2019-06-10T05:49:04.109Z,100993.64
2019-06-10T05:50:09.644Z,100989.41
2019-06-10T05:51:15.116Z,100994.48
2019-06-10T05:52:22.978Z,100993.28
2019-06-10T05:53:29.176Z,100994.64
2019-06-10T05:54:35.481Z,100998.64
2019-06-10T05:55:42.720Z,101003.31
2019-06-10T05:56:47.699Z,100995.56
2019-06-10T05:57:53.310Z,101000.94
2019-06-10T05:59:01.512Z,100998.73
2019-06-10T06:00:14.001Z,101000.72
2019-06-10T06:01:14.592Z,101003.06
2019-06-10T06:02:22.132Z,101001.36
2019-06-10T06:03:27.790Z,100998.30
2019-06-10T06:04:34.709Z,101003.03
2019-06-10T06:05:39.957Z,100993.41
2019-06-10T06:06:45.270Z,100989.02
2019-06-10T06:08:02.307Z,100995.76
2019-06-10T06:08:57.575Z,100990.06
2019-06-10T06:10:03.228Z,100983.63
2019-06-10T06:11:08.647Z,100986.16
2019-06-10T06:12:14.393Z,100988.02
2019-06-10T06:13:19.848Z,100986.00
2019-06-10T06:14:25.521Z,100978.73
2019-06-10T06:15:33.021Z,100980.25
2019-06-10T06:16:38.340Z,100979.05
2019-06-10T06:17:43.554Z,100977.84
2019-06-10T06:18:49.105Z,100977.48
2019-06-10T06:19:54.197Z,100979.17
2019-06-10T06:21:19.067Z,100980.83
2019-06-10T06:22:06.755Z,100980.83
2019-06-10T06:23:12.368Z,100978.13
2019-06-10T06:24:17.806Z,100983.52
2019-06-10T06:25:24.145Z,100985.20
2019-06-10T06:26:33.401Z,100980.50
2019-06-10T06:27:37.079Z,100985.83
2019-06-10T06:28:43.380Z,100978.73
2019-06-10T06:29:48.784Z,100982.11
2019-06-10T06:30:53.945Z,100979.55
2019-06-10T06:31:59.907Z,100984.58
2019-06-10T06:33:05.916Z,100985.76
2019-06-10T06:34:13.794Z,100989.10
2019-06-10T06:35:18.390Z,100988.73
2019-06-10T06:36:23.674Z,100984.53
2019-06-10T06:37:29.072Z,100988.03
2019-06-10T06:38:36.631Z,100982.98
2019-06-10T06:39:42.908Z,100988.04
2019-06-10T06:40:48.594Z,100986.69
2019-06-10T06:41:53.847Z,100987.02
2019-06-10T06:42:59.312Z,100988.38
2019-06-10T06:44:04.964Z,100983.98
2019-06-10T06:45:12.171Z,100977.95
2019-06-10T06:46:17.799Z,100981.52
2019-06-10T06:47:23.125Z,100976.35
2019-06-10T06:48:28.342Z,100981.60
2019-06-10T06:49:35.481Z,100979.07
2019-06-10T06:50:57.262Z,100974.02
2019-06-10T06:51:55.300Z,100976.86
2019-06-10T06:53:19.824Z,100970.59
2019-06-10T06:54:03.302Z,100979.16
2019-06-10T06:55:08.997Z,100977.95
2019-06-10T06:56:14.429Z,100974.39
2019-06-10T06:57:22.236Z,100981.64
2019-06-10T06:58:26.914Z,100981.78
2019-06-10T06:59:34.231Z,100983.80
2019-06-10T07:00:57.898Z,100991.19
2019-06-10T07:01:47.088Z,100984.25
2019-06-10T07:02:53.008Z,100990.12
2019-06-10T07:03:58.190Z,100992.11
2019-06-10T07:05:03.615Z,100984.47
2019-06-10T07:06:13.193Z,100981.73
2019-06-10T07:07:22.220Z,100976.95
2019-06-10T07:08:27.924Z,100982.82
2019-06-10T07:09:36.190Z,100983.16
2019-06-10T07:10:43.644Z,100983.02
2019-06-10T07:11:49.981Z,100978.50
2019-06-10T07:12:58.528Z,100985.61
2019-06-10T07:14:04.648Z,100978.73
2019-06-10T07:15:12.181Z,100977.72
2019-06-10T07:16:17.599Z,100974.72
2019-06-10T07:17:22.911Z,100969.83
2019-06-10T07:18:28.206Z,100972.50
2019-06-10T07:19:36.310Z,100974.62
2019-06-10T07:20:41.650Z,100971.86
2019-06-10T07:22:07.437Z,100965.69
2019-06-10T07:22:54.742Z,100961.87
2019-06-10T07:23:59.903Z,100965.50
2019-06-10T07:25:06.722Z,100956.02
2019-06-10T07:26:12.721Z,100960.70
2019-06-10T07:27:18.218Z,100958.47
2019-06-10T07:28:23.645Z,100954.77
2019-06-10T07:29:29.209Z,100950.67
2019-06-10T07:30:38.844Z,100951.47
2019-06-10T07:31:45.961Z,100952.91
2019-06-10T07:32:49.247Z,100952.95
2019-06-10T07:33:54.714Z,100963.91
2019-06-10T07:34:59.841Z,100961.53
2019-06-10T07:36:05.191Z,100959.24
2019-06-10T07:37:12.929Z,100960.84
2019-06-10T07:38:18.553Z,100964.34
2019-06-10T07:39:23.668Z,100956.30
2019-06-10T07:40:29.034Z,100960.60
2019-06-10T07:41:35.635Z,100964.25
2019-06-10T07:42:43.703Z,100961.66
2019-06-10T07:43:54.395Z,100957.09
2019-06-10T07:45:02.413Z,100957.48
2019-06-10T07:46:07.157Z,100953.48
2019-06-10T07:47:12.900Z,100954.03
2019-06-10T07:48:18.124Z,100955.17
2019-06-10T07:49:23.980Z,100954.78
2019-06-10T07:50:29.389Z,100957.94
2019-06-10T07:51:35.866Z,100948.76
2019-06-10T07:52:46.078Z,100951.82
2019-06-10T07:53:48.556Z,100952.94
2019-06-10T07:54:53.678Z,100949.95
2019-06-10T07:55:58.974Z,100948.00
2019-06-10T07:57:04.256Z,100944.39
2019-06-10T07:58:09.673Z,100943.31
2019-06-10T07:59:14.877Z,100951.36
2019-06-10T08:00:22.760Z,100954.81
2019-06-10T08:01:27.971Z,100948.89
2019-06-10T08:02:34.058Z,100953.45
2019-06-10T08:03:41.803Z,100948.27
2019-06-10T08:04:48.013Z,100954.18
2019-06-10T08:05:53.233Z,100951.66
2019-06-10T08:06:58.575Z,100954.06
2019-06-10T08:08:03.779Z,100950.70
2019-06-10T08:09:09.423Z,100947.88
2019-06-10T08:10:14.713Z,100942.28
2019-06-10T08:11:22.646Z,100949.34
2019-06-10T08:12:27.167Z,100952.38
2019-06-10T08:13:33.064Z,100950.81
2019-06-10T08:14:39.461Z,100943.03
2019-06-10T08:15:46.187Z,100944.50
2019-06-10T08:16:53.112Z,100936.53
2019-06-10T08:17:58.617Z,100941.55
2019-06-10T08:19:26.117Z,100938.96
2019-06-10T08:20:13.439Z,100945.33
2019-06-10T08:21:18.247Z,100943.25
2019-06-10T08:22:35.124Z,100943.69
2019-06-10T08:23:32.907Z,100940.95
2019-06-10T08:25:46.773Z,100936.09
2019-06-10T08:26:49.907Z,100938.62
2019-06-10T08:27:55.092Z,100929.77
2019-06-10T08:29:04.174Z,100930.09
2019-06-10T08:30:18.521Z,100923.01
2019-06-10T08:31:16.598Z,100924.76
2019-06-10T08:32:24.249Z,100922.78
2019-06-10T08:33:28.765Z,100925.34
2019-06-10T08:34:33.663Z,100922.64
2019-06-10T08:35:48.343Z,100924.83
2019-06-10T08:36:50.392Z,100919.13
2019-06-10T08:37:53.770Z,100921.83
2019-06-10T08:38:58.772Z,100914.52
2019-06-10T08:40:05.104Z,100917.05
2019-06-10T08:41:12.255Z,100913.17
2019-06-10T08:42:18.262Z,100917.77
2019-06-10T08:43:23.927Z,100911.05
2019-06-10T08:44:29.640Z,100910.78
2019-06-10T08:45:35.002Z,100904.13
2019-06-10T08:46:41.578Z,100907.92
2019-06-10T08:47:49.093Z,100902.28
2019-06-10T08:48:55.207Z,100905.67
2019-06-10T08:50:02.541Z,100906.73
2019-06-10T08:51:07.895Z,100901.33
2019-06-10T08:52:13.099Z,100901.63
2019-06-10T08:53:22.515Z,100913.89
2019-06-10T08:54:27.178Z,100907.49
2019-06-10T08:55:33.597Z,100904.67
2019-06-10T08:56:40.114Z,100905.91
2019-06-10T08:57:48.835Z,100902.69
2019-06-10T08:58:54.030Z,100910.30
2019-06-10T09:00:04.052Z,100910.41
2019-06-10T09:01:06.965Z,100910.20
2019-06-10T09:02:12.587Z,100913.16
2019-06-10T09:03:17.876Z,100910.91
2019-06-10T09:04:24.396Z,100907.52
2019-06-10T09:05:29.645Z,100910.20
2019-06-10T09:06:35.304Z,100916.97
2019-06-10T09:07:45.470Z,100912.33
2019-06-10T09:08:51.287Z,100904.39
2019-06-10T09:09:55.222Z,100903.88
2019-06-10T09:11:02.314Z,100893.22
2019-06-10T09:12:07.839Z,100892.81
2019-06-10T09:13:13.512Z,100887.69
2019-06-10T09:14:18.416Z,100893.84
2019-06-10T09:15:24.197Z,100896.84
2019-06-10T09:16:29.415Z,100896.70
2019-06-10T09:17:34.899Z,100891.51
2019-06-10T09:18:44.109Z,100888.70
2019-06-10T09:19:49.173Z,100880.87
2019-06-10T09:20:56.152Z,100879.22
2019-06-10T09:22:03.212Z,100875.67
2019-06-10T09:23:21.637Z,100879.08
2019-06-10T09:24:15.387Z,100879.81
2019-06-10T09:25:22.671Z,100875.31
2019-06-10T09:26:28.289Z,100877.08
2019-06-10T09:27:33.478Z,100879.16
2019-06-10T09:28:40.445Z,100877.66
2019-06-10T09:29:49.788Z,100880.91
2019-06-10T09:30:58.887Z,100880.07
2019-06-10T09:32:02.176Z,100881.31
2019-06-10T09:33:07.837Z,100884.39
2019-06-10T09:34:13.209Z,100878.36
2019-06-10T09:35:19.527Z,100876.67
2019-06-10T09:36:24.697Z,100880.95
2019-06-10T09:37:32.022Z,100872.50
2019-06-10T09:38:37.670Z,100878.76
2019-06-10T09:39:49.844Z,100873.02
2019-06-10T09:40:59.220Z,100876.67
2019-06-10T09:42:02.673Z,100882.53
2019-06-10T09:43:05.633Z,100881.61
2019-06-10T09:44:12.944Z,100880.80
2019-06-10T09:45:22.243Z,100885.63
2019-06-10T09:46:33.129Z,100888.37
2019-06-10T09:47:44.494Z,100888.58
2019-06-10T09:48:50.286Z,100888.21
2019-06-10T09:49:55.658Z,100883.42
2019-06-10T09:51:02.468Z,100894.25
2019-06-10T09:52:07.637Z,100891.54
2019-06-10T09:53:30.209Z,100887.16
2019-06-10T09:54:26.495Z,100884.95
2019-06-10T09:55:33.719Z,100880.09
2019-06-10T09:56:38.805Z,100883.42
2019-06-10T09:57:47.215Z,100875.30
2019-06-10T09:58:55.099Z,100874.56
2019-06-10T09:59:59.178Z,100880.12
2019-06-10T10:01:05.656Z,100871.16
2019-06-10T10:02:12.594Z,100875.73
2019-06-10T10:03:17.887Z,100867.80
2019-06-10T10:04:23.762Z,100866.14
2019-06-10T10:05:28.726Z,100867.36
2019-06-10T10:06:34.262Z,100862.68
2019-06-10T10:07:39.450Z,100859.23
2019-06-10T10:08:49.294Z,100858.73
2019-06-10T10:09:57.006Z,100855.31
2019-06-10T10:11:00.879Z,100850.09
2019-06-10T10:12:05.898Z,100853.96
2019-06-10T10:13:13.088Z,100848.84
2019-06-10T10:14:18.131Z,100854.80
2019-06-10T10:15:30.550Z,100855.03
2019-06-10T10:16:33.685Z,100858.09
2019-06-10T10:17:37.674Z,100855.02
2019-06-10T10:18:48.354Z,100858.88
2019-06-10T10:19:53.830Z,100853.28
2019-06-10T10:21:00.073Z,100848.39
2019-06-10T10:22:03.964Z,100846.81
2019-06-10T10:23:09.800Z,100848.83
2019-06-10T10:24:15.588Z,100847.06
2019-06-10T10:25:23.398Z,100847.37
2019-06-10T10:26:28.266Z,100846.83
2019-06-10T10:27:33.405Z,100842.89
2019-06-10T10:28:39.298Z,100844.38
2019-06-10T10:29:47.177Z,100840.73
2019-06-10T10:30:57.195Z,100835.49
2019-06-10T10:31:58.794Z,100837.78
2019-06-10T10:33:04.405Z,100835.72
2019-06-10T10:34:09.532Z,100840.07
2019-06-10T10:35:15.474Z,100835.48
2019-06-10T10:36:22.592Z,100844.98
2019-06-10T10:37:28.449Z,100839.03
2019-06-10T10:38:34.907Z,100838.00
2019-06-10T10:39:40.787Z,100832.25
2019-06-10T10:40:49.012Z,100834.36
2019-06-10T10:41:56.628Z,100835.06
2019-06-10T10:43:19.813Z,100827.36
2019-06-10T10:44:07.609Z,100832.69
2019-06-10T10:45:13.788Z,100828.52
2019-06-10T10:46:22.914Z,100827.17
2019-06-10T10:47:27.653Z,100828.52
2019-06-10T10:48:34.295Z,100830.59
2019-06-10T10:49:39.163Z,100829.36
2019-06-10T10:50:45.612Z,100831.33
2019-06-10T10:51:51.216Z,100825.47
2019-06-10T10:52:56.684Z,100829.73
2019-06-10T10:54:21.161Z,100827.14
2019-06-10T10:55:09.571Z,100827.14
2019-06-10T10:56:14.720Z,100829.02
2019-06-10T10:57:22.589Z,100823.17
2019-06-10T10:58:26.840Z,100825.89
2019-06-10T10:59:33.269Z,100819.52
2019-06-10T11:00:45.338Z,100817.83
2019-06-10T11:01:51.622Z,100815.10
2019-06-10T11:02:57.370Z,100817.08
2019-06-10T11:04:03.923Z,100818.52
2019-06-10T11:05:12.685Z,100817.73
2019-06-10T11:06:18.315Z,100816.70
2019-06-10T11:07:23.793Z,100810.73
2019-06-10T11:08:32.383Z,100808.08
2019-06-10T11:09:36.748Z,100811.59
2019-06-10T11:10:45.330Z,100808.61
2019-06-10T11:11:52.224Z,100812.45
2019-06-10T11:12:58.043Z,100808.02
2019-06-10T11:14:03.586Z,100800.67
2019-06-10T11:15:09.943Z,100798.75
2019-06-10T11:16:15.083Z,100796.42
2019-06-10T11:17:22.696Z,100795.50
2019-06-10T11:18:27.220Z,100795.89
2019-06-10T11:19:33.045Z,100800.05
2019-06-10T11:20:38.147Z,100794.17
2019-06-10T11:21:43.786Z,100790.09
2019-06-10T11:22:49.619Z,100790.53
2019-06-10T11:23:59.902Z,100790.98
2019-06-10T11:25:01.933Z,100793.06
2019-06-10T11:26:07.662Z,100785.44
2019-06-10T11:27:12.860Z,100786.59
2019-06-10T11:28:18.687Z,100784.62
2019-06-10T11:29:23.606Z,100789.92
2019-06-10T11:30:32.242Z,100788.48
2019-06-10T11:31:36.567Z,100784.41
2019-06-10T11:32:43.224Z,100777.30
2019-06-10T11:33:48.726Z,100779.73
2019-06-10T11:34:56.926Z,100776.37
2019-06-10T11:36:02.915Z,100779.41
2019-06-10T11:37:08.345Z,100769.90
2019-06-10T11:38:13.325Z,100769.14
2019-06-10T11:39:19.015Z,100765.38
2019-06-10T11:40:24.053Z,100757.55
2019-06-10T11:41:32.280Z,100759.85
2019-06-10T11:42:36.706Z,100751.46
2019-06-10T11:43:43.203Z,100742.78
2019-06-10T11:44:48.444Z,100744.14
2019-06-10T11:46:01.186Z,100746.58
2019-06-10T11:47:03.220Z,100755.02
2019-06-10T11:48:10.297Z,100745.82
2019-06-10T11:49:15.277Z,100756.25
2019-06-10T11:50:23.236Z,100750.29
2019-06-10T11:51:27.963Z,100756.25
2019-06-10T11:52:33.863Z,100750.11
2019-06-10T11:53:38.798Z,100751.35
2019-06-10T11:54:55.805Z,100751.87
2019-06-10T11:55:51.715Z,100744.27
2019-06-10T11:56:58.603Z,100753.06
2019-06-10T11:58:04.008Z,100749.30
2019-06-10T11:59:10.105Z,100752.41
2019-06-10T12:00:17.504Z,100752.48
2019-06-10T12:01:23.104Z,100746.09
2019-06-10T12:02:28.121Z,100748.05
2019-06-10T12:03:33.756Z,100748.12
2019-06-10T12:04:39.052Z,100751.47
2019-06-10T12:05:44.897Z,100751.75
2019-06-10T12:06:50.608Z,100747.98
2019-06-10T12:07:59.701Z,100743.59
2019-06-10T12:09:03.703Z,100740.59
2019-06-10T12:10:12.660Z,100743.59
2019-06-10T12:11:16.761Z,100751.75
2019-06-10T12:12:22.559Z,100745.27
2019-06-10T12:13:27.499Z,100738.86
2019-06-10T12:14:33.975Z,100737.58
2019-06-10T12:16:19.940Z,100732.53
2019-06-10T12:18:00.836Z,100730.96
2019-06-10T12:19:03.400Z,100729.08
2019-06-10T12:20:09.033Z,100733.23
2019-06-10T12:21:14.570Z,100724.00
2019-06-10T12:22:19.631Z,100724.31
2019-06-10T12:23:25.359Z,100724.31
2019-06-10T12:24:33.135Z,100726.72
2019-06-10T12:25:39.657Z,100726.82
2019-06-10T12:26:44.458Z,100725.53
2019-06-10T12:27:51.588Z,100718.42
2019-06-10T12:28:59.366Z,100721.07
2019-06-10T12:30:05.132Z,100713.05
2019-06-10T12:31:13.062Z,100708.20
2019-06-10T12:32:17.475Z,100712.44
2019-06-10T12:33:25.360Z,100707.73
2019-06-10T12:34:33.005Z,100703.66
2019-06-10T12:35:36.884Z,100709.72
2019-06-10T12:36:42.487Z,100702.61
2019-06-10T12:37:47.782Z,100703.38